sensor_id;sensor_type;location;lat;lon;timestamp;pressure;altitude;pressure_sealevel;temperature;humidity
18533;BME280;9396;51.510;11.934;2022-08-18T00:01:37;99902.50;;;23.21;72.38
18533;BME280;9396;51.510;11.934;2022-08-18T00:04:05;99907.13;;;23.21;72.39
18533;BME280;9396;51.510;11.934;2022-08-18T00:06:33;99905.78;;;23.23;72.70
18533;BME280;9396;51.510;11.934;2022-08-18T00:09:03;99906.53;;;23.19;72.87
18533;BME280;9396;51.510;11.934;2022-08-18T00:11:33;99899.69;;;23.16;73.15
18533;BME280;9396;51.510;11.934;2022-08-18T00:14:00;99893.44;;;23.16;72.91
18533;BME280;9396;51.510;11.934;2022-08-18T00:16:26;99903.16;;;23.12;72.94
18533;BME280;9396;51.510;11.934;2022-08-18T00:18:53;99890.25;;;23.02;72.72
18533;BME280;9396;51.510;11.934;2022-08-18T00:21:20;99881.13;;;22.92;73.05
18533;BME280;9396;51.510;11.934;2022-08-18T00:23:48;99889.53;;;22.90;73.23
18533;BME280;9396;51.510;11.934;2022-08-18T00:26:15;99883.44;;;22.83;73.29
18533;BME280;9396;51.510;11.934;2022-08-18T00:28:41;99885.31;;;22.83;73.48
18533;BME280;9396;51.510;11.934;2022-08-18T00:31:08;99888.75;;;22.62;74.00
18533;BME280;9396;51.510;11.934;2022-08-18T00:33:35;99895.97;;;22.56;74.31
18533;BME280;9396;51.510;11.934;2022-08-18T00:36:02;99894.41;;;22.60;74.19
18533;BME280;9396;51.510;11.934;2022-08-18T00:38:28;99893.44;;;22.66;74.38
18533;BME280;9396;51.510;11.934;2022-08-18T00:40:56;99890.81;;;22.71;74.44
18533;BME280;9396;51.510;11.934;2022-08-18T00:43:26;99896.25;;;22.71;74.41
18533;BME280;9396;51.510;11.934;2022-08-18T00:45:56;99887.03;;;22.72;73.97
18533;BME280;9396;51.510;11.934;2022-08-18T00:48:22;99883.75;;;22.70;74.04
18533;BME280;9396;51.510;11.934;2022-08-18T00:50:52;99867.97;;;22.67;74.16
18533;BME280;9396;51.510;11.934;2022-08-18T00:53:24;99872.47;;;22.62;74.33
18533;BME280;9396;51.510;11.934;2022-08-18T00:55:52;99865.63;;;22.59;74.36
18533;BME280;9396;51.510;11.934;2022-08-18T00:58:27;99865.63;;;22.59;74.35
18533;BME280;9396;51.510;11.934;2022-08-18T01:00:55;99866.72;;;22.58;74.02
18533;BME280;9396;51.510;11.934;2022-08-18T01:03:22;99863.69;;;22.55;74.09
18533;BME280;9396;51.510;11.934;2022-08-18T01:05:53;99866.13;;;22.56;74.39
18533;BME280;9396;51.510;11.934;2022-08-18T01:08:21;99861.19;;;22.53;74.21
18533;BME280;9396;51.510;11.934;2022-08-18T01:10:49;99858.72;;;22.52;74.24
18533;BME280;9396;51.510;11.934;2022-08-18T01:13:16;99850.81;;;22.50;74.25
18533;BME280;9396;51.510;11.934;2022-08-18T01:15:44;99852.97;;;22.48;74.34
18533;BME280;9396;51.510;11.934;2022-08-18T01:18:12;99858.38;;;22.48;74.44
18533;BME280;9396;51.510;11.934;2022-08-18T01:21:02;99862.41;;;22.46;74.13
18533;BME280;9396;51.510;11.934;2022-08-18T01:23:50;99858.28;;;22.43;74.22
18533;BME280;9396;51.510;11.934;2022-08-18T01:26:19;99861.47;;;22.40;74.18
18533;BME280;9396;51.510;11.934;2022-08-18T01:28:46;99859.34;;;22.42;74.59
18533;BME280;9396;51.510;11.934;2022-08-18T01:31:29;99859.00;;;22.39;74.60
18533;BME280;9396;51.510;11.934;2022-08-18T01:33:58;99863.59;;;22.38;74.86
18533;BME280;9396;51.510;11.934;2022-08-18T01:36:26;99856.56;;;22.37;74.94
18533;BME280;9396;51.510;11.934;2022-08-18T01:38:55;99856.81;;;22.36;75.07
18533;BME280;9396;51.510;11.934;2022-08-18T01:41:22;99857.03;;;22.34;74.76
18533;BME280;9396;51.510;11.934;2022-08-18T01:43:49;99853.75;;;22.32;74.93
18533;BME280;9396;51.510;11.934;2022-08-18T01:46:16;99861.31;;;22.30;75.08
18533;BME280;9396;51.510;11.934;2022-08-18T01:48:44;99861.09;;;22.20;74.55
18533;BME280;9396;51.510;11.934;2022-08-18T01:51:12;99859.47;;;22.19;74.65
18533;BME280;9396;51.510;11.934;2022-08-18T01:53:39;99862.75;;;22.21;74.79
18533;BME280;9396;51.510;11.934;2022-08-18T01:56:07;99864.97;;;22.24;74.81
18533;BME280;9396;51.510;11.934;2022-08-18T01:58:35;99863.34;;;22.23;74.79
18533;BME280;9396;51.510;11.934;2022-08-18T02:01:03;99859.97;;;22.16;74.46
18533;BME280;9396;51.510;11.934;2022-08-18T02:03:34;99860.22;;;22.03;74.76
18533;BME280;9396;51.510;11.934;2022-08-18T02:06:04;99859.47;;;21.91;75.19
18533;BME280;9396;51.510;11.934;2022-08-18T02:08:31;99860.38;;;21.96;74.90
18533;BME280;9396;51.510;11.934;2022-08-18T02:10:58;99860.81;;;22.05;74.72
18533;BME280;9396;51.510;11.934;2022-08-18T02:13:26;99859.84;;;22.11;74.32
18533;BME280;9396;51.510;11.934;2022-08-18T02:15:53;99859.38;;;22.14;74.38
18533;BME280;9396;51.510;11.934;2022-08-18T02:18:21;99783.75;;;21.73;74.16
18533;BME280;9396;51.510;11.934;2022-08-18T02:20:49;99857.25;;;22.16;74.27
18533;BME280;9396;51.510;11.934;2022-08-18T02:23:16;99861.59;;;22.17;74.40
18533;BME280;9396;51.510;11.934;2022-08-18T02:25:43;99864.38;;;22.22;74.42
18533;BME280;9396;51.510;11.934;2022-08-18T02:28:10;99866.84;;;22.23;74.29
18533;BME280;9396;51.510;11.934;2022-08-18T02:30:38;99866.38;;;22.26;74.79
18533;BME280;9396;51.510;11.934;2022-08-18T02:33:06;99865.22;;;22.22;74.69
18533;BME280;9396;51.510;11.934;2022-08-18T02:35:33;99860.84;;;22.21;74.88
18533;BME280;9396;51.510;11.934;2022-08-18T02:38:00;99868.44;;;22.08;74.83
18533;BME280;9396;51.510;11.934;2022-08-18T02:40:27;99867.69;;;21.96;74.95
18533;BME280;9396;51.510;11.934;2022-08-18T02:42:57;99869.56;;;21.95;75.04
18533;BME280;9396;51.510;11.934;2022-08-18T02:45:24;99863.56;;;21.93;75.17
18533;BME280;9396;51.510;11.934;2022-08-18T02:47:53;99861.66;;;21.94;74.98
18533;BME280;9396;51.510;11.934;2022-08-18T02:50:20;99855.75;;;21.97;74.98
18533;BME280;9396;51.510;11.934;2022-08-18T02:52:47;99853.63;;;21.99;75.02
18533;BME280;9396;51.510;11.934;2022-08-18T02:55:14;99855.66;;;21.92;75.26
18533;BME280;9396;51.510;11.934;2022-08-18T02:57:42;99858.38;;;21.92;74.85
18533;BME280;9396;51.510;11.934;2022-08-18T03:00:10;99861.00;;;21.87;75.07
18533;BME280;9396;51.510;11.934;2022-08-18T03:02:39;99863.69;;;21.87;74.93
18533;BME280;9396;51.510;11.934;2022-08-18T03:05:08;99857.78;;;21.90;75.03
18533;BME280;9396;51.510;11.934;2022-08-18T03:07:35;99845.81;;;21.86;75.45
18533;BME280;9396;51.510;11.934;2022-08-18T03:10:02;99867.59;;;21.91;74.81
18533;BME280;9396;51.510;11.934;2022-08-18T03:12:28;99863.78;;;21.92;75.20
18533;BME280;9396;51.510;11.934;2022-08-18T03:14:55;99871.44;;;21.95;75.06
18533;BME280;9396;51.510;11.934;2022-08-18T03:17:22;99872.03;;;21.97;75.52
18533;BME280;9396;51.510;11.934;2022-08-18T03:19:48;99866.25;;;21.93;75.45
18533;BME280;9396;51.510;11.934;2022-08-18T03:22:16;99875.13;;;21.89;75.57
18533;BME280;9396;51.510;11.934;2022-08-18T03:24:43;99873.81;;;21.91;75.90
18533;BME280;9396;51.510;11.934;2022-08-18T03:27:10;99876.50;;;21.91;76.09
18533;BME280;9396;51.510;11.934;2022-08-18T03:29:37;99874.28;;;21.88;76.00
18533;BME280;9396;51.510;11.934;2022-08-18T03:32:05;99870.53;;;21.89;75.80
18533;BME280;9396;51.510;11.934;2022-08-18T03:34:33;99869.47;;;21.90;75.82
18533;BME280;9396;51.510;11.934;2022-08-18T03:37:00;99873.00;;;21.91;75.48
18533;BME280;9396;51.510;11.934;2022-08-18T03:39:28;99873.81;;;21.91;75.55
18533;BME280;9396;51.510;11.934;2022-08-18T03:41:55;99873.81;;;21.91;75.83
18533;BME280;9396;51.510;11.934;2022-08-18T03:44:23;99895.38;;;21.86;76.03
18533;BME280;9396;51.510;11.934;2022-08-18T03:46:50;99882.44;;;21.77;76.09
18533;BME280;9396;51.510;11.934;2022-08-18T03:49:18;99880.16;;;21.74;76.48
18533;BME280;9396;51.510;11.934;2022-08-18T03:51:46;99885.84;;;21.72;76.35
18533;BME280;9396;51.510;11.934;2022-08-18T03:54:14;99891.72;;;21.69;76.38
18533;BME280;9396;51.510;11.934;2022-08-18T03:56:44;99884.66;;;21.68;76.82
18533;BME280;9396;51.510;11.934;2022-08-18T03:59:13;99880.56;;;21.66;76.96
18533;BME280;9396;51.510;11.934;2022-08-18T04:01:43;99876.78;;;21.67;76.79
18533;BME280;9396;51.510;11.934;2022-08-18T04:04:12;99886.22;;;21.64;77.23
18533;BME280;9396;51.510;11.934;2022-08-18T04:06:41;99890.78;;;21.64;77.25
18533;BME280;9396;51.510;11.934;2022-08-18T04:09:10;99898.91;;;21.64;77.27
18533;BME280;9396;51.510;11.934;2022-08-18T04:11:39;99896.56;;;21.56;77.07
18533;BME280;9396;51.510;11.934;2022-08-18T04:14:09;99896.94;;;21.36;77.35
18533;BME280;9396;51.510;11.934;2022-08-18T04:16:37;99903.16;;;21.37;77.45
18533;BME280;9396;51.510;11.934;2022-08-18T04:19:04;99893.75;;;21.27;77.35
18533;BME280;9396;51.510;11.934;2022-08-18T04:21:32;99899.06;;;21.22;77.42
18533;BME280;9396;51.510;11.934;2022-08-18T04:24:01;99898.81;;;21.24;77.21
18533;BME280;9396;51.510;11.934;2022-08-18T04:26:30;99901.63;;;21.29;77.03
18533;BME280;9396;51.510;11.934;2022-08-18T04:28:57;99905.28;;;21.35;77.02
18533;BME280;9396;51.510;11.934;2022-08-18T04:31:27;99918.38;;;21.38;76.95
18533;BME280;9396;51.510;11.934;2022-08-18T04:33:54;99914.00;;;21.37;77.06
18533;BME280;9396;51.510;11.934;2022-08-18T04:36:21;99911.41;;;21.42;77.07
18533;BME280;9396;51.510;11.934;2022-08-18T04:38:48;99912.22;;;21.42;77.12
18533;BME280;9396;51.510;11.934;2022-08-18T04:41:15;99915.16;;;21.52;76.85
18533;BME280;9396;51.510;11.934;2022-08-18T04:43:42;99919.78;;;21.52;77.37
18533;BME280;9396;51.510;11.934;2022-08-18T04:46:09;99911.75;;;21.57;77.81
18533;BME280;9396;51.510;11.934;2022-08-18T04:48:39;99900.78;;;21.63;78.29
18533;BME280;9396;51.510;11.934;2022-08-18T04:51:10;99918.81;;;21.69;79.11
18533;BME280;9396;51.510;11.934;2022-08-18T04:53:37;99917.03;;;21.75;79.72
18533;BME280;9396;51.510;11.934;2022-08-18T04:56:13;99918.69;;;21.76;80.29
18533;BME280;9396;51.510;11.934;2022-08-18T04:58:42;99917.63;;;21.88;79.99
18533;BME280;9396;51.510;11.934;2022-08-18T05:01:09;99921.75;;;21.79;80.63
18533;BME280;9396;51.510;11.934;2022-08-18T05:03:35;99921.75;;;21.91;80.60
18533;BME280;9396;51.510;11.934;2022-08-18T05:06:04;99924.06;;;21.99;80.49
18533;BME280;9396;51.510;11.934;2022-08-18T05:08:32;99931.97;;;22.00;81.03
18533;BME280;9396;51.510;11.934;2022-08-18T05:10:59;99932.78;;;22.01;80.90
18533;BME280;9396;51.510;11.934;2022-08-18T05:13:25;99932.78;;;22.12;80.88
18533;BME280;9396;51.510;11.934;2022-08-18T05:15:53;99941.59;;;22.19;81.29
18533;BME280;9396;51.510;11.934;2022-08-18T05:18:21;99947.34;;;22.23;81.10
18533;BME280;9396;51.510;11.934;2022-08-18T05:20:50;99943.13;;;22.15;81.45
18533;BME280;9396;51.510;11.934;2022-08-18T05:23:19;99940.03;;;22.23;81.36
18533;BME280;9396;51.510;11.934;2022-08-18T05:25:46;99940.94;;;22.29;81.10
18533;BME280;9396;51.510;11.934;2022-08-18T05:28:13;99941.94;;;22.23;81.59
18533;BME280;9396;51.510;11.934;2022-08-18T05:30:40;99941.34;;;22.21;81.67
18533;BME280;9396;51.510;11.934;2022-08-18T05:33:08;99938.81;;;22.31;81.44
18533;BME280;9396;51.510;11.934;2022-08-18T05:35:40;99944.09;;;22.38;81.31
18533;BME280;9396;51.510;11.934;2022-08-18T05:38:21;99945.59;;;22.45;81.06
18533;BME280;9396;51.510;11.934;2022-08-18T05:41:06;99946.19;;;22.47;81.26
18533;BME280;9396;51.510;11.934;2022-08-18T05:43:35;99951.03;;;22.45;81.79
18533;BME280;9396;51.510;11.934;2022-08-18T05:46:04;99946.78;;;22.49;81.34
18533;BME280;9396;51.510;11.934;2022-08-18T05:48:31;99946.66;;;22.56;81.25
18533;BME280;9396;51.510;11.934;2022-08-18T05:51:05;99948.84;;;22.70;80.96
18533;BME280;9396;51.510;11.934;2022-08-18T05:53:37;99948.06;;;22.58;81.58
18533;BME280;9396;51.510;11.934;2022-08-18T05:56:23;99941.91;;;22.63;81.39
18533;BME280;9396;51.510;11.934;2022-08-18T05:59:09;99942.13;;;22.73;81.56
18533;BME280;9396;51.510;11.934;2022-08-18T06:01:42;99940.88;;;22.80;81.31
18533;BME280;9396;51.510;11.934;2022-08-18T06:04:18;99948.00;;;22.70;81.49
18533;BME280;9396;51.510;11.934;2022-08-18T06:06:48;99933.41;;;22.71;81.68
18533;BME280;9396;51.510;11.934;2022-08-18T06:09:20;99940.28;;;22.62;82.33
18533;BME280;9396;51.510;11.934;2022-08-18T06:11:50;99948.50;;;22.67;82.41
18533;BME280;9396;51.510;11.934;2022-08-18T06:14:18;99938.81;;;22.71;82.61
18533;BME280;9396;51.510;11.934;2022-08-18T06:16:53;99944.00;;;22.72;82.62
18533;BME280;9396;51.510;11.934;2022-08-18T06:19:33;99950.00;;;22.74;82.79
18533;BME280;9396;51.510;11.934;2022-08-18T06:22:11;99954.94;;;22.77;83.36
18533;BME280;9396;51.510;11.934;2022-08-18T06:24:46;99951.16;;;22.78;83.37
18533;BME280;9396;51.510;11.934;2022-08-18T06:27:20;99948.91;;;22.75;83.61
18533;BME280;9396;51.510;11.934;2022-08-18T06:30:00;99958.31;;;22.84;83.31
18533;BME280;9396;51.510;11.934;2022-08-18T06:32:41;99961.53;;;22.81;83.57
18533;BME280;9396;51.510;11.934;2022-08-18T06:35:17;99961.59;;;22.86;83.45
18533;BME280;9396;51.510;11.934;2022-08-18T06:37:50;99955.28;;;22.97;83.39
18533;BME280;9396;51.510;11.934;2022-08-18T06:40:42;99963.13;;;23.10;83.24
18533;BME280;9396;51.510;11.934;2022-08-18T06:43:12;99969.31;;;23.22;83.13
18533;BME280;9396;51.510;11.934;2022-08-18T06:45:42;99972.59;;;23.24;83.71
18533;BME280;9396;51.510;11.934;2022-08-18T06:48:14;99967.84;;;23.31;83.36
18533;BME280;9396;51.510;11.934;2022-08-18T06:50:49;99900.69;;;22.94;83.29
18533;BME280;9396;51.510;11.934;2022-08-18T06:53:18;99973.84;;;23.50;83.38
18533;BME280;9396;51.510;11.934;2022-08-18T06:55:48;99975.06;;;23.59;83.12
18533;BME280;9396;51.510;11.934;2022-08-18T06:58:24;99973.91;;;23.72;81.56
18533;BME280;9396;51.510;11.934;2022-08-18T07:00:57;99968.13;;;23.85;81.85
18533;BME280;9396;51.510;11.934;2022-08-18T07:03:41;99977.22;;;23.95;80.67
18533;BME280;9396;51.510;11.934;2022-08-18T07:06:10;99981.25;;;23.93;81.37
18533;BME280;9396;51.510;11.934;2022-08-18T07:08:51;99986.88;;;23.86;81.35
18533;BME280;9396;51.510;11.934;2022-08-18T07:11:25;99981.13;;;23.83;80.77
18533;BME280;9396;51.510;11.934;2022-08-18T07:13:53;99971.41;;;23.87;81.63
18533;BME280;9396;51.510;11.934;2022-08-18T07:16:29;99974.19;;;23.92;82.09
18533;BME280;9396;51.510;11.934;2022-08-18T07:19:06;99979.31;;;23.88;81.04
18533;BME280;9396;51.510;11.934;2022-08-18T07:21:34;99981.09;;;23.99;81.68
18533;BME280;9396;51.510;11.934;2022-08-18T07:24:06;99984.50;;;24.06;81.55
18533;BME280;9396;51.510;11.934;2022-08-18T07:26:58;99982.09;;;24.10;80.71
18533;BME280;9396;51.510;11.934;2022-08-18T07:29:27;99981.78;;;24.06;80.60
18533;BME280;9396;51.510;11.934;2022-08-18T07:31:54;99975.00;;;24.09;80.37
18533;BME280;9396;51.510;11.934;2022-08-18T07:34:26;99986.13;;;24.07;80.86
18533;BME280;9396;51.510;11.934;2022-08-18T07:36:59;99993.75;;;24.10;80.91
18533;BME280;9396;51.510;11.934;2022-08-18T07:39:30;99994.28;;;24.07;80.45
18533;BME280;9396;51.510;11.934;2022-08-18T07:42:02;99993.97;;;24.04;81.34
18533;BME280;9396;51.510;11.934;2022-08-18T07:44:41;100003.00;;;23.93;81.22
18533;BME280;9396;51.510;11.934;2022-08-18T07:47:15;100003.31;;;23.96;81.58
18533;BME280;9396;51.510;11.934;2022-08-18T07:49:46;100019.31;;;23.93;80.56
18533;BME280;9396;51.510;11.934;2022-08-18T07:52:18;99963.94;;;23.61;80.86
18533;BME280;9396;51.510;11.934;2022-08-18T07:54:53;100027.53;;;23.98;81.16
18533;BME280;9396;51.510;11.934;2022-08-18T07:57:34;100028.72;;;24.02;81.10
18533;BME280;9396;51.510;11.934;2022-08-18T08:00:09;100041.31;;;24.08;80.68
18533;BME280;9396;51.510;11.934;2022-08-18T08:02:48;100038.03;;;24.06;80.19
18533;BME280;9396;51.510;11.934;2022-08-18T08:05:32;100046.00;;;24.12;80.10
18533;BME280;9396;51.510;11.934;2022-08-18T08:08:09;100043.66;;;24.21;79.49
18533;BME280;9396;51.510;11.934;2022-08-18T08:10:43;100033.34;;;24.23;79.54
18533;BME280;9396;51.510;11.934;2022-08-18T08:13:18;99975.75;;;23.88;79.41
18533;BME280;9396;51.510;11.934;2022-08-18T08:15:53;100041.84;;;24.26;79.67
18533;BME280;9396;51.510;11.934;2022-08-18T08:18:32;100030.16;;;24.26;79.64
18533;BME280;9396;51.510;11.934;2022-08-18T08:21:07;100038.84;;;24.28;79.01
18533;BME280;9396;51.510;11.934;2022-08-18T08:23:40;100038.00;;;24.22;78.82
18533;BME280;9396;51.510;11.934;2022-08-18T08:26:23;100036.31;;;24.21;78.73
18533;BME280;9396;51.510;11.934;2022-08-18T08:29:00;100042.59;;;24.22;78.54
18533;BME280;9396;51.510;11.934;2022-08-18T08:31:36;100055.22;;;24.11;79.24
18533;BME280;9396;51.510;11.934;2022-08-18T08:34:14;100052.06;;;24.19;80.05
18533;BME280;9396;51.510;11.934;2022-08-18T08:36:45;100043.66;;;24.21;79.82
18533;BME280;9396;51.510;11.934;2022-08-18T08:39:18;100031.72;;;24.22;79.34
18533;BME280;9396;51.510;11.934;2022-08-18T08:41:50;100032.13;;;24.14;78.31
18533;BME280;9396;51.510;11.934;2022-08-18T08:44:23;100022.66;;;24.16;79.01
18533;BME280;9396;51.510;11.934;2022-08-18T08:46:55;100018.31;;;24.15;78.60
18533;BME280;9396;51.510;11.934;2022-08-18T08:49:34;100014.31;;;24.23;78.17
18533;BME280;9396;51.510;11.934;2022-08-18T08:52:08;99948.53;;;23.83;78.44
18533;BME280;9396;51.510;11.934;2022-08-18T08:54:44;100014.97;;;24.30;79.23
18533;BME280;9396;51.510;11.934;2022-08-18T08:57:12;100010.34;;;24.30;78.94
18533;BME280;9396;51.510;11.934;2022-08-18T08:59:41;100010.03;;;24.27;79.44
18533;BME280;9396;51.510;11.934;2022-08-18T09:02:36;100015.47;;;24.27;79.75
18533;BME280;9396;51.510;11.934;2022-08-18T09:05:12;100008.88;;;24.23;79.51
18533;BME280;9396;51.510;11.934;2022-08-18T09:08:03;100006.31;;;24.33;79.14
18533;BME280;9396;51.510;11.934;2022-08-18T09:10:51;100018.31;;;24.37;79.71
18533;BME280;9396;51.510;11.934;2022-08-18T09:13:48;100019.66;;;24.34;78.80
18533;BME280;9396;51.510;11.934;2022-08-18T09:16:34;100018.88;;;24.39;79.75
18533;BME280;9396;51.510;11.934;2022-08-18T09:19:17;100024.06;;;24.40;79.46
18533;BME280;9396;51.510;11.934;2022-08-18T09:21:54;100024.84;;;24.36;78.55
18533;BME280;9396;51.510;11.934;2022-08-18T09:24:25;100019.03;;;24.27;78.68
18533;BME280;9396;51.510;11.934;2022-08-18T09:27:12;100016.88;;;24.29;79.05
18533;BME280;9396;51.510;11.934;2022-08-18T09:29:48;100003.84;;;24.31;78.14
18533;BME280;9396;51.510;11.934;2022-08-18T09:32:55;99998.16;;;24.33;79.01
18533;BME280;9396;51.510;11.934;2022-08-18T09:35:41;99998.59;;;24.25;79.58
18533;BME280;9396;51.510;11.934;2022-08-18T09:38:15;99997.06;;;24.34;78.47
18533;BME280;9396;51.510;11.934;2022-08-18T09:41:06;100007.53;;;24.42;78.99
18533;BME280;9396;51.510;11.934;2022-08-18T09:43:55;100005.66;;;24.48;78.62
18533;BME280;9396;51.510;11.934;2022-08-18T09:46:53;100007.13;;;24.55;77.79
18533;BME280;9396;51.510;11.934;2022-08-18T09:55:41;100014.59;;;24.65;78.10
18533;BME280;9396;51.510;11.934;2022-08-18T09:58:20;100012.78;;;24.70;78.88
18533;BME280;9396;51.510;11.934;2022-08-18T10:01:31;100022.63;;;24.76;78.41
18533;BME280;9396;51.510;11.934;2022-08-18T10:04:26;100011.25;;;24.79;77.23
18533;BME280;9396;51.510;11.934;2022-08-18T10:07:13;100017.56;;;24.85;77.92
18533;BME280;9396;51.510;11.934;2022-08-18T10:09:47;100021.66;;;24.87;77.30
18533;BME280;9396;51.510;11.934;2022-08-18T10:12:27;100016.84;;;24.94;77.30
18533;BME280;9396;51.510;11.934;2022-08-18T10:15:25;100025.63;;;25.01;76.70
18533;BME280;9396;51.510;11.934;2022-08-18T10:18:07;100024.34;;;25.09;77.28
18533;BME280;9396;51.510;11.934;2022-08-18T10:20:51;100022.50;;;25.14;76.93
18533;BME280;9396;51.510;11.934;2022-08-18T10:29:51;100026.63;;;25.17;77.61
18533;BME280;9396;51.510;11.934;2022-08-18T10:32:35;100031.88;;;25.28;76.48
18533;BME280;9396;51.510;11.934;2022-08-18T10:35:03;100029.47;;;25.32;76.60
18533;BME280;9396;51.510;11.934;2022-08-18T10:37:35;100034.22;;;25.42;75.93
18533;BME280;9396;51.510;11.934;2022-08-18T10:40:12;100034.28;;;25.52;75.60
18533;BME280;9396;51.510;11.934;2022-08-18T10:42:43;100032.34;;;25.47;75.68
18533;BME280;9396;51.510;11.934;2022-08-18T10:45:18;100032.16;;;25.59;75.98
18533;BME280;9396;51.510;11.934;2022-08-18T10:47:58;100039.34;;;25.70;74.77
18533;BME280;9396;51.510;11.934;2022-08-18T10:50:27;100042.44;;;25.83;75.82
18533;BME280;9396;51.510;11.934;2022-08-18T10:53:06;100052.56;;;25.88;75.57
18533;BME280;9396;51.510;11.934;2022-08-18T10:55:43;100047.16;;;25.93;74.80
18533;BME280;9396;51.510;11.934;2022-08-18T10:58:30;100017.88;;;25.78;74.07
18533;BME280;9396;51.510;11.934;2022-08-18T11:01:15;100038.97;;;25.93;73.68
18533;BME280;9396;51.510;11.934;2022-08-18T11:04:00;100045.53;;;25.97;73.56
18533;BME280;9396;51.510;11.934;2022-08-18T11:06:28;100039.63;;;26.05;74.06
18533;BME280;9396;51.510;11.934;2022-08-18T11:09:02;100045.91;;;26.10;73.75
18533;BME280;9396;51.510;11.934;2022-08-18T11:11:33;100045.38;;;26.13;75.14
18533;BME280;9396;51.510;11.934;2022-08-18T11:14:10;100032.59;;;26.14;74.47
18533;BME280;9396;51.510;11.934;2022-08-18T11:16:48;100040.44;;;26.05;75.65
18533;BME280;9396;51.510;11.934;2022-08-18T11:19:17;100036.84;;;26.00;73.41
18533;BME280;9396;51.510;11.934;2022-08-18T11:21:47;100035.97;;;25.94;73.73
18533;BME280;9396;51.510;11.934;2022-08-18T11:24:17;100036.25;;;25.93;75.47
18533;BME280;9396;51.510;11.934;2022-08-18T11:26:48;100047.41;;;25.91;76.80
18533;BME280;9396;51.510;11.934;2022-08-18T11:29:28;100016.16;;;25.67;75.34
18533;BME280;9396;51.510;11.934;2022-08-18T11:32:00;100046.53;;;25.81;75.63
18533;BME280;9396;51.510;11.934;2022-08-18T11:34:34;100050.56;;;25.78;75.09
18533;BME280;9396;51.510;11.934;2022-08-18T11:37:04;100049.75;;;25.78;76.38
18533;BME280;9396;51.510;11.934;2022-08-18T11:39:32;100050.28;;;25.75;74.92
18533;BME280;9396;51.510;11.934;2022-08-18T11:41:59;100044.53;;;25.71;75.27
18533;BME280;9396;51.510;11.934;2022-08-18T11:44:29;100049.69;;;25.68;75.32
18533;BME280;9396;51.510;11.934;2022-08-18T11:47:13;100040.69;;;25.67;73.48
18533;BME280;9396;51.510;11.934;2022-08-18T11:49:50;100044.16;;;25.58;75.11
18533;BME280;9396;51.510;11.934;2022-08-18T11:52:23;100042.75;;;25.55;74.60
18533;BME280;9396;51.510;11.934;2022-08-18T11:54:51;100030.44;;;25.48;75.61
18533;BME280;9396;51.510;11.934;2022-08-18T11:57:41;100029.25;;;25.38;74.72
18533;BME280;9396;51.510;11.934;2022-08-18T12:00:36;100016.75;;;25.37;77.04
18533;BME280;9396;51.510;11.934;2022-08-18T12:03:08;100015.91;;;25.37;74.84
18533;BME280;9396;51.510;11.934;2022-08-18T12:05:43;100021.59;;;25.35;75.20
18533;BME280;9396;51.510;11.934;2022-08-18T12:08:19;100008.56;;;25.37;76.59
18533;BME280;9396;51.510;11.934;2022-08-18T12:10:47;99990.56;;;25.36;77.50
18533;BME280;9396;51.510;11.934;2022-08-18T12:13:21;99998.66;;;25.31;76.32
18533;BME280;9396;51.510;11.934;2022-08-18T12:16:07;99994.88;;;25.32;75.80
18533;BME280;9396;51.510;11.934;2022-08-18T12:18:35;99996.25;;;25.35;76.54
18533;BME280;9396;51.510;11.934;2022-08-18T12:21:02;100002.59;;;25.40;76.79
18533;BME280;9396;51.510;11.934;2022-08-18T12:23:30;99928.19;;;25.03;75.57
18533;BME280;9396;51.510;11.934;2022-08-18T12:25:56;100007.31;;;25.50;75.53
18533;BME280;9396;51.510;11.934;2022-08-18T12:28:23;100002.31;;;25.42;75.42
18533;BME280;9396;51.510;11.934;2022-08-18T12:30:51;100005.63;;;25.44;74.68
18533;BME280;9396;51.510;11.934;2022-08-18T12:33:18;100008.06;;;25.46;75.42
18533;BME280;9396;51.510;11.934;2022-08-18T12:35:46;100006.44;;;25.45;75.72
18533;BME280;9396;51.510;11.934;2022-08-18T12:38:13;100012.72;;;25.45;75.59
18533;BME280;9396;51.510;11.934;2022-08-18T12:40:42;100004.81;;;25.44;75.27
18533;BME280;9396;51.510;11.934;2022-08-18T12:43:09;100003.19;;;25.48;75.32
18533;BME280;9396;51.510;11.934;2022-08-18T12:45:36;100000.53;;;25.53;76.02
18533;BME280;9396;51.510;11.934;2022-08-18T12:48:03;99992.59;;;25.51;76.50
18533;BME280;9396;51.510;11.934;2022-08-18T12:50:30;100000.75;;;25.51;75.45
18533;BME280;9396;51.510;11.934;2022-08-18T12:52:58;99989.38;;;25.54;75.86
18533;BME280;9396;51.510;11.934;2022-08-18T12:55:25;99979.84;;;25.57;75.72
18533;BME280;9396;51.510;11.934;2022-08-18T12:57:53;99982.84;;;25.60;76.29
18533;BME280;9396;51.510;11.934;2022-08-18T13:00:20;99983.16;;;25.64;75.88
18533;BME280;9396;51.510;11.934;2022-08-18T13:02:46;99986.16;;;25.67;76.20
18533;BME280;9396;51.510;11.934;2022-08-18T13:05:13;99986.72;;;25.69;76.71
18533;BME280;9396;51.510;11.934;2022-08-18T13:07:40;99992.97;;;25.65;76.36
18533;BME280;9396;51.510;11.934;2022-08-18T13:10:09;99993.00;;;25.70;75.81
18533;BME280;9396;51.510;11.934;2022-08-18T13:12:35;99991.88;;;25.66;76.59
18533;BME280;9396;51.510;11.934;2022-08-18T13:15:03;99987.00;;;25.68;76.01
18533;BME280;9396;51.510;11.934;2022-08-18T13:17:31;99984.56;;;25.71;76.21
18533;BME280;9396;51.510;11.934;2022-08-18T13:19:58;99977.22;;;25.72;76.31
18533;BME280;9396;51.510;11.934;2022-08-18T13:22:24;99978.56;;;25.69;76.26
18533;BME280;9396;51.510;11.934;2022-08-18T13:24:51;99980.44;;;25.69;76.57
18533;BME280;9396;51.510;11.934;2022-08-18T13:27:19;99976.69;;;25.75;75.88
18533;BME280;9396;51.510;11.934;2022-08-18T13:29:47;99985.69;;;25.75;76.05
18533;BME280;9396;51.510;11.934;2022-08-18T13:32:13;99995.22;;;25.78;76.44
18533;BME280;9396;51.510;11.934;2022-08-18T13:34:40;99996.06;;;25.78;76.01
18533;BME280;9396;51.510;11.934;2022-08-18T13:37:07;99996.63;;;25.80;76.26